Ridgewood, New York
Current Conditions -  °F | °C
As of 7:51 PM on Sunday 23 Nov 2014 (Local Time) from KLGA Reporting Station
Broken Clouds Broken Clouds  
Wind Chill: 10°   Ceiling: 25000
Heat Index: 10°   Visibility: 10mi
Dew Point:   Wind: 3mph
Humidity: 71%   Direction: 200°SSW
Pressure: 30.11"   Gusts: NA
Location:  40.7°N, 73.9°W
Report Text: KLGA 240051Z 20003KT 10SM SCT100 BKN250 10/05 A3011 RMK AO2 SLP197 T01000050
Loading
Personal Weather Stations






























Interactive Weather Map New forecast layout! Learn more

10-Day Weather Forecast

Advertisements
Track Severe Weather on mobile